sensor_id;sensor_type;location;lat;lon;timestamp;P1;durP1;ratioP1;P2;durP2;ratioP2
22935;SDS011;11633;42.716;23.312;2023-04-25T00:01:08;2.38;;;1.95;;
22935;SDS011;11633;42.716;23.312;2023-04-25T00:03:34;3.53;;;2.63;;
22935;SDS011;11633;42.716;23.312;2023-04-25T00:06:00;3.47;;;2.75;;
22935;SDS011;11633;42.716;23.312;2023-04-25T00:08:29;4.13;;;2.90;;
22935;SDS011;11633;42.716;23.312;2023-04-25T00:10:54;4.57;;;2.72;;
22935;SDS011;11633;42.716;23.312;2023-04-25T00:13:19;5.65;;;2.92;;
22935;SDS011;11633;42.716;23.312;2023-04-25T00:15:45;6.10;;;3.17;;
22935;SDS011;11633;42.716;23.312;2023-04-25T00:18:11;3.55;;;2.55;;
22935;SDS011;11633;42.716;23.312;2023-04-25T00:20:36;3.28;;;2.70;;
22935;SDS011;11633;42.716;23.312;2023-04-25T00:23:01;3.65;;;2.80;;
22935;SDS011;11633;42.716;23.312;2023-04-25T00:25:27;2.95;;;2.50;;
22935;SDS011;11633;42.716;23.312;2023-04-25T00:27:52;5.38;;;2.88;;
22935;SDS011;11633;42.716;23.312;2023-04-25T00:30:17;4.10;;;2.95;;
22935;SDS011;11633;42.716;23.312;2023-04-25T00:32:43;3.40;;;2.80;;
22935;SDS011;11633;42.716;23.312;2023-04-25T00:35:09;3.97;;;2.80;;
22935;SDS011;11633;42.716;23.312;2023-04-25T00:37:34;3.63;;;3.33;;
22935;SDS011;11633;42.716;23.312;2023-04-25T00:40:00;3.22;;;2.90;;
22935;SDS011;11633;42.716;23.312;2023-04-25T00:42:25;4.57;;;3.40;;
22935;SDS011;11633;42.716;23.312;2023-04-25T00:44:51;3.92;;;3.53;;
22935;SDS011;11633;42.716;23.312;2023-04-25T00:47:17;4.30;;;3.90;;
22935;SDS011;11633;42.716;23.312;2023-04-25T00:49:42;4.00;;;3.30;;
22935;SDS011;11633;42.716;23.312;2023-04-25T00:52:07;4.82;;;3.97;;
22935;SDS011;11633;42.716;23.312;2023-04-25T00:54:33;4.85;;;3.85;;
22935;SDS011;11633;42.716;23.312;2023-04-25T00:56:58;5.00;;;3.97;;
22935;SDS011;11633;42.716;23.312;2023-04-25T00:59:23;4.75;;;3.75;;
22935;SDS011;11633;42.716;23.312;2023-04-25T01:01:50;6.28;;;4.03;;
22935;SDS011;11633;42.716;23.312;2023-04-25T01:04:15;5.50;;;3.80;;
22935;SDS011;11633;42.716;23.312;2023-04-25T01:06:40;4.53;;;3.80;;
22935;SDS011;11633;42.716;23.312;2023-04-25T01:09:05;4.38;;;3.85;;
22935;SDS011;11633;42.716;23.312;2023-04-25T01:11:32;5.70;;;4.20;;
22935;SDS011;11633;42.716;23.312;2023-04-25T01:13:57;5.18;;;3.88;;
22935;SDS011;11633;42.716;23.312;2023-04-25T01:16:22;5.90;;;4.05;;
22935;SDS011;11633;42.716;23.312;2023-04-25T01:18:49;5.43;;;4.70;;
22935;SDS011;11633;42.716;23.312;2023-04-25T01:21:15;5.75;;;4.25;;
22935;SDS011;11633;42.716;23.312;2023-04-25T01:23:40;4.43;;;3.72;;
22935;SDS011;11633;42.716;23.312;2023-04-25T01:26:06;4.30;;;3.90;;
22935;SDS011;11633;42.716;23.312;2023-04-25T01:28:32;4.90;;;4.18;;
22935;SDS011;11633;42.716;23.312;2023-04-25T01:30:58;5.28;;;3.80;;
22935;SDS011;11633;42.716;23.312;2023-04-25T01:33:23;6.55;;;4.63;;
22935;SDS011;11633;42.716;23.312;2023-04-25T01:35:49;5.00;;;4.03;;
22935;SDS011;11633;42.716;23.312;2023-04-25T01:38:14;5.47;;;4.50;;
22935;SDS011;11633;42.716;23.312;2023-04-25T01:40:40;5.22;;;4.00;;
22935;SDS011;11633;42.716;23.312;2023-04-25T01:43:05;5.07;;;4.40;;
22935;SDS011;11633;42.716;23.312;2023-04-25T01:45:31;8.13;;;5.00;;
22935;SDS011;11633;42.716;23.312;2023-04-25T01:47:56;4.50;;;4.10;;
22935;SDS011;11633;42.716;23.312;2023-04-25T01:50:24;5.18;;;4.38;;
22935;SDS011;11633;42.716;23.312;2023-04-25T01:52:49;6.32;;;4.80;;
22935;SDS011;11633;42.716;23.312;2023-04-25T01:55:15;4.80;;;3.85;;
22935;SDS011;11633;42.716;23.312;2023-04-25T01:57:40;5.03;;;4.10;;
22935;SDS011;11633;42.716;23.312;2023-04-25T02:00:06;7.00;;;3.90;;
22935;SDS011;11633;42.716;23.312;2023-04-25T02:02:34;5.40;;;4.30;;
22935;SDS011;11633;42.716;23.312;2023-04-25T02:05:00;4.82;;;4.00;;
22935;SDS011;11633;42.716;23.312;2023-04-25T02:07:25;7.68;;;5.18;;
22935;SDS011;11633;42.716;23.312;2023-04-25T02:09:51;4.32;;;3.92;;
22935;SDS011;11633;42.716;23.312;2023-04-25T02:12:16;3.90;;;3.42;;
22935;SDS011;11633;42.716;23.312;2023-04-25T02:14:41;5.40;;;3.70;;
22935;SDS011;11633;42.716;23.312;2023-04-25T02:17:07;3.80;;;3.30;;
22935;SDS011;11633;42.716;23.312;2023-04-25T02:19:32;4.72;;;3.78;;
22935;SDS011;11633;42.716;23.312;2023-04-25T02:21:57;4.57;;;3.33;;
22935;SDS011;11633;42.716;23.312;2023-04-25T02:24:23;4.07;;;3.35;;
22935;SDS011;11633;42.716;23.312;2023-04-25T02:26:48;4.43;;;3.10;;
22935;SDS011;11633;42.716;23.312;2023-04-25T02:29:14;4.25;;;3.67;;
22935;SDS011;11633;42.716;23.312;2023-04-25T02:31:40;6.88;;;3.58;;
22935;SDS011;11633;42.716;23.312;2023-04-25T02:34:05;3.65;;;3.33;;
22935;SDS011;11633;42.716;23.312;2023-04-25T02:36:30;3.60;;;3.20;;
22935;SDS011;11633;42.716;23.312;2023-04-25T02:38:59;4.22;;;3.17;;
22935;SDS011;11633;42.716;23.312;2023-04-25T02:41:25;4.70;;;3.67;;
22935;SDS011;11633;42.716;23.312;2023-04-25T02:43:50;4.53;;;3.20;;
22935;SDS011;11633;42.716;23.312;2023-04-25T02:46:15;4.80;;;3.78;;
22935;SDS011;11633;42.716;23.312;2023-04-25T02:48:40;4.72;;;3.40;;
22935;SDS011;11633;42.716;23.312;2023-04-25T02:51:06;5.85;;;3.92;;
22935;SDS011;11633;42.716;23.312;2023-04-25T02:53:31;5.32;;;4.03;;
22935;SDS011;11633;42.716;23.312;2023-04-25T02:55:56;11.73;;;7.30;;
22935;SDS011;11633;42.716;23.312;2023-04-25T02:58:23;5.28;;;4.55;;
22935;SDS011;11633;42.716;23.312;2023-04-25T03:00:48;4.15;;;3.65;;
22935;SDS011;11633;42.716;23.312;2023-04-25T03:03:13;4.63;;;4.13;;
22935;SDS011;11633;42.716;23.312;2023-04-25T03:05:39;4.78;;;3.80;;
22935;SDS011;11633;42.716;23.312;2023-04-25T03:08:05;6.30;;;4.68;;
22935;SDS011;11633;42.716;23.312;2023-04-25T03:10:30;6.05;;;4.60;;
22935;SDS011;11633;42.716;23.312;2023-04-25T03:12:55;6.75;;;4.70;;
22935;SDS011;11633;42.716;23.312;2023-04-25T03:15:20;5.60;;;4.72;;
22935;SDS011;11633;42.716;23.312;2023-04-25T03:17:46;6.22;;;4.25;;
22935;SDS011;11633;42.716;23.312;2023-04-25T03:20:11;7.18;;;4.68;;
22935;SDS011;11633;42.716;23.312;2023-04-25T03:22:36;6.15;;;4.25;;
22935;SDS011;11633;42.716;23.312;2023-04-25T03:25:02;4.57;;;3.97;;
22935;SDS011;11633;42.716;23.312;2023-04-25T03:27:27;8.32;;;4.22;;
22935;SDS011;11633;42.716;23.312;2023-04-25T03:29:52;4.70;;;4.00;;
22935;SDS011;11633;42.716;23.312;2023-04-25T03:32:18;5.55;;;4.15;;
22935;SDS011;11633;42.716;23.312;2023-04-25T03:34:43;5.95;;;4.63;;
22935;SDS011;11633;42.716;23.312;2023-04-25T03:37:08;5.53;;;4.78;;
22935;SDS011;11633;42.716;23.312;2023-04-25T03:39:33;7.25;;;4.93;;
22935;SDS011;11633;42.716;23.312;2023-04-25T03:41:59;4.47;;;4.07;;
22935;SDS011;11633;42.716;23.312;2023-04-25T03:44:24;6.35;;;4.70;;
22935;SDS011;11633;42.716;23.312;2023-04-25T03:46:50;5.15;;;4.65;;
22935;SDS011;11633;42.716;23.312;2023-04-25T03:49:16;9.50;;;5.80;;
22935;SDS011;11633;42.716;23.312;2023-04-25T03:51:41;9.38;;;6.88;;
22935;SDS011;11633;42.716;23.312;2023-04-25T03:54:06;7.65;;;6.30;;
22935;SDS011;11633;42.716;23.312;2023-04-25T03:56:32;7.78;;;6.72;;
22935;SDS011;11633;42.716;23.312;2023-04-25T03:58:57;7.40;;;6.63;;
22935;SDS011;11633;42.716;23.312;2023-04-25T04:01:23;7.95;;;7.10;;
22935;SDS011;11633;42.716;23.312;2023-04-25T04:03:48;6.88;;;6.00;;
22935;SDS011;11633;42.716;23.312;2023-04-25T04:06:13;8.95;;;7.07;;
22935;SDS011;11633;42.716;23.312;2023-04-25T04:08:38;6.80;;;5.38;;
22935;SDS011;11633;42.716;23.312;2023-04-25T04:11:03;6.20;;;4.95;;
22935;SDS011;11633;42.716;23.312;2023-04-25T04:13:29;5.57;;;4.00;;
22935;SDS011;11633;42.716;23.312;2023-04-25T04:15:55;5.43;;;4.38;;
22935;SDS011;11633;42.716;23.312;2023-04-25T04:18:20;4.78;;;4.28;;
22935;SDS011;11633;42.716;23.312;2023-04-25T04:20:45;5.93;;;4.57;;
22935;SDS011;11633;42.716;23.312;2023-04-25T04:23:11;4.80;;;4.20;;
22935;SDS011;11633;42.716;23.312;2023-04-25T04:25:36;4.68;;;4.18;;
22935;SDS011;11633;42.716;23.312;2023-04-25T04:28:02;5.07;;;4.43;;
22935;SDS011;11633;42.716;23.312;2023-04-25T04:30:27;5.32;;;3.92;;
22935;SDS011;11633;42.716;23.312;2023-04-25T04:32:56;4.75;;;4.00;;
22935;SDS011;11633;42.716;23.312;2023-04-25T04:35:21;4.60;;;3.97;;
22935;SDS011;11633;42.716;23.312;2023-04-25T04:37:47;8.15;;;4.97;;
22935;SDS011;11633;42.716;23.312;2023-04-25T04:40:12;6.32;;;4.80;;
22935;SDS011;11633;42.716;23.312;2023-04-25T04:42:40;6.13;;;4.63;;
22935;SDS011;11633;42.716;23.312;2023-04-25T04:45:06;6.70;;;5.72;;
22935;SDS011;11633;42.716;23.312;2023-04-25T04:47:31;7.15;;;4.97;;
22935;SDS011;11633;42.716;23.312;2023-04-25T04:49:57;6.40;;;5.78;;
22935;SDS011;11633;42.716;23.312;2023-04-25T04:52:22;8.77;;;5.90;;
22935;SDS011;11633;42.716;23.312;2023-04-25T04:54:47;9.35;;;7.90;;
22935;SDS011;11633;42.716;23.312;2023-04-25T04:57:13;10.85;;;9.15;;
22935;SDS011;11633;42.716;23.312;2023-04-25T04:59:38;10.82;;;8.82;;
22935;SDS011;11633;42.716;23.312;2023-04-25T05:02:03;7.93;;;7.13;;
22935;SDS011;11633;42.716;23.312;2023-04-25T05:04:28;8.88;;;7.10;;
22935;SDS011;11633;42.716;23.312;2023-04-25T05:06:54;9.60;;;7.32;;
22935;SDS011;11633;42.716;23.312;2023-04-25T05:09:19;9.65;;;7.90;;
22935;SDS011;11633;42.716;23.312;2023-04-25T05:11:44;10.10;;;7.93;;
22935;SDS011;11633;42.716;23.312;2023-04-25T05:14:09;19.65;;;14.77;;
22935;SDS011;11633;42.716;23.312;2023-04-25T05:16:35;10.60;;;8.15;;
22935;SDS011;11633;42.716;23.312;2023-04-25T05:19:00;9.07;;;6.40;;
22935;SDS011;11633;42.716;23.312;2023-04-25T05:21:25;8.55;;;6.97;;
22935;SDS011;11633;42.716;23.312;2023-04-25T05:23:52;7.75;;;6.28;;
22935;SDS011;11633;42.716;23.312;2023-04-25T05:26:17;12.43;;;8.23;;
22935;SDS011;11633;42.716;23.312;2023-04-25T05:28:42;9.48;;;6.85;;
22935;SDS011;11633;42.716;23.312;2023-04-25T05:31:09;8.40;;;6.68;;
22935;SDS011;11633;42.716;23.312;2023-04-25T05:33:34;9.82;;;8.70;;
22935;SDS011;11633;42.716;23.312;2023-04-25T05:36:00;7.75;;;6.05;;
22935;SDS011;11633;42.716;23.312;2023-04-25T05:38:25;8.88;;;6.22;;
22935;SDS011;11633;42.716;23.312;2023-04-25T05:40:50;8.07;;;7.20;;
22935;SDS011;11633;42.716;23.312;2023-04-25T05:43:16;10.07;;;8.70;;
22935;SDS011;11633;42.716;23.312;2023-04-25T05:45:41;10.82;;;9.73;;
22935;SDS011;11633;42.716;23.312;2023-04-25T05:48:06;13.77;;;9.00;;
22935;SDS011;11633;42.716;23.312;2023-04-25T05:50:31;10.70;;;8.88;;
22935;SDS011;11633;42.716;23.312;2023-04-25T05:52:57;12.30;;;7.68;;
22935;SDS011;11633;42.716;23.312;2023-04-25T05:55:22;9.50;;;6.88;;
22935;SDS011;11633;42.716;23.312;2023-04-25T05:57:47;7.40;;;6.47;;
22935;SDS011;11633;42.716;23.312;2023-04-25T06:00:13;7.18;;;6.40;;
22935;SDS011;11633;42.716;23.312;2023-04-25T06:02:40;13.07;;;8.25;;
22935;SDS011;11633;42.716;23.312;2023-04-25T06:05:05;7.22;;;5.05;;
22935;SDS011;11633;42.716;23.312;2023-04-25T06:07:30;5.13;;;4.13;;
22935;SDS011;11633;42.716;23.312;2023-04-25T06:09:56;6.95;;;5.03;;
22935;SDS011;11633;42.716;23.312;2023-04-25T06:12:21;7.28;;;6.18;;
22935;SDS011;11633;42.716;23.312;2023-04-25T06:14:46;6.28;;;5.68;;
22935;SDS011;11633;42.716;23.312;2023-04-25T06:17:11;5.55;;;5.05;;
22935;SDS011;11633;42.716;23.312;2023-04-25T06:19:37;8.82;;;5.70;;
22935;SDS011;11633;42.716;23.312;2023-04-25T06:22:02;7.28;;;5.78;;
22935;SDS011;11633;42.716;23.312;2023-04-25T06:24:27;6.35;;;5.75;;
22935;SDS011;11633;42.716;23.312;2023-04-25T06:26:53;7.22;;;6.32;;
22935;SDS011;11633;42.716;23.312;2023-04-25T06:29:18;8.00;;;6.05;;
22935;SDS011;11633;42.716;23.312;2023-04-25T06:31:43;6.78;;;4.65;;
22935;SDS011;11633;42.716;23.312;2023-04-25T06:34:08;4.97;;;4.47;;
22935;SDS011;11633;42.716;23.312;2023-04-25T06:36:34;8.75;;;4.82;;
22935;SDS011;11633;42.716;23.312;2023-04-25T06:38:59;8.05;;;5.88;;
22935;SDS011;11633;42.716;23.312;2023-04-25T06:41:24;5.03;;;4.35;;
22935;SDS011;11633;42.716;23.312;2023-04-25T06:43:49;7.35;;;5.20;;
22935;SDS011;11633;42.716;23.312;2023-04-25T06:46:15;9.50;;;4.35;;
22935;SDS011;11633;42.716;23.312;2023-04-25T06:48:40;8.60;;;5.15;;
22935;SDS011;11633;42.716;23.312;2023-04-25T06:51:05;6.88;;;4.47;;
22935;SDS011;11633;42.716;23.312;2023-04-25T06:53:31;5.32;;;3.13;;
22935;SDS011;11633;42.716;23.312;2023-04-25T06:55:56;4.45;;;3.38;;
22935;SDS011;11633;42.716;23.312;2023-04-25T06:58:21;4.93;;;2.80;;
22935;SDS011;11633;42.716;23.312;2023-04-25T07:00:47;4.95;;;3.38;;
22935;SDS011;11633;42.716;23.312;2023-04-25T07:03:12;7.28;;;3.45;;
22935;SDS011;11633;42.716;23.312;2023-04-25T07:05:37;4.30;;;3.58;;
22935;SDS011;11633;42.716;23.312;2023-04-25T07:08:03;6.00;;;3.92;;
22935;SDS011;11633;42.716;23.312;2023-04-25T07:10:28;6.72;;;4.35;;
22935;SDS011;11633;42.716;23.312;2023-04-25T07:12:53;6.10;;;4.18;;
22935;SDS011;11633;42.716;23.312;2023-04-25T07:15:18;13.05;;;7.65;;
22935;SDS011;11633;42.716;23.312;2023-04-25T07:17:44;7.80;;;4.80;;
22935;SDS011;11633;42.716;23.312;2023-04-25T07:20:09;6.63;;;4.18;;
22935;SDS011;11633;42.716;23.312;2023-04-25T07:22:35;5.50;;;3.90;;
22935;SDS011;11633;42.716;23.312;2023-04-25T07:25:00;6.28;;;4.18;;
22935;SDS011;11633;42.716;23.312;2023-04-25T07:27:25;8.82;;;3.70;;
22935;SDS011;11633;42.716;23.312;2023-04-25T07:29:50;7.28;;;5.65;;
22935;SDS011;11633;42.716;23.312;2023-04-25T07:32:16;6.07;;;4.63;;
22935;SDS011;11633;42.716;23.312;2023-04-25T07:34:41;8.57;;;4.55;;
22935;SDS011;11633;42.716;23.312;2023-04-25T07:37:06;9.43;;;5.80;;
22935;SDS011;11633;42.716;23.312;2023-04-25T07:39:32;7.68;;;5.75;;
22935;SDS011;11633;42.716;23.312;2023-04-25T07:41:57;6.60;;;4.63;;
22935;SDS011;11633;42.716;23.312;2023-04-25T07:44:23;7.63;;;4.80;;
22935;SDS011;11633;42.716;23.312;2023-04-25T07:46:49;5.95;;;4.50;;
22935;SDS011;11633;42.716;23.312;2023-04-25T07:49:14;8.57;;;4.63;;
22935;SDS011;11633;42.716;23.312;2023-04-25T07:51:40;7.15;;;4.72;;
22935;SDS011;11633;42.716;23.312;2023-04-25T07:54:05;7.82;;;4.72;;
22935;SDS011;11633;42.716;23.312;2023-04-25T07:56:31;6.15;;;4.45;;
22935;SDS011;11633;42.716;23.312;2023-04-25T07:58:56;8.93;;;5.18;;
22935;SDS011;11633;42.716;23.312;2023-04-25T08:01:22;6.88;;;5.03;;
22935;SDS011;11633;42.716;23.312;2023-04-25T08:03:47;7.75;;;5.82;;
22935;SDS011;11633;42.716;23.312;2023-04-25T08:06:12;13.18;;;5.57;;
22935;SDS011;11633;42.716;23.312;2023-04-25T08:08:37;7.35;;;5.55;;
22935;SDS011;11633;42.716;23.312;2023-04-25T08:11:03;6.53;;;5.10;;
22935;SDS011;11633;42.716;23.312;2023-04-25T08:13:28;5.90;;;5.30;;
22935;SDS011;11633;42.716;23.312;2023-04-25T08:15:53;7.43;;;4.32;;
22935;SDS011;11633;42.716;23.312;2023-04-25T08:18:18;6.03;;;4.55;;
22935;SDS011;11633;42.716;23.312;2023-04-25T08:20:43;5.35;;;4.20;;
22935;SDS011;11633;42.716;23.312;2023-04-25T08:23:09;4.53;;;3.65;;
22935;SDS011;11633;42.716;23.312;2023-04-25T08:25:35;9.25;;;5.15;;
22935;SDS011;11633;42.716;23.312;2023-04-25T08:28:01;5.53;;;3.92;;
22935;SDS011;11633;42.716;23.312;2023-04-25T08:30:27;6.20;;;3.63;;
22935;SDS011;11633;42.716;23.312;2023-04-25T08:32:53;5.78;;;4.28;;
22935;SDS011;11633;42.716;23.312;2023-04-25T08:35:18;8.23;;;6.05;;
22935;SDS011;11633;42.716;23.312;2023-04-25T08:37:43;7.95;;;7.15;;
22935;SDS011;11633;42.716;23.312;2023-04-25T08:40:11;9.30;;;6.40;;
22935;SDS011;11633;42.716;23.312;2023-04-25T08:42:36;7.68;;;6.97;;
22935;SDS011;11633;42.716;23.312;2023-04-25T08:45:02;7.50;;;4.80;;
22935;SDS011;11633;42.716;23.312;2023-04-25T08:47:28;3.55;;;3.08;;
22935;SDS011;11633;42.716;23.312;2023-04-25T08:49:54;3.33;;;2.78;;
22935;SDS011;11633;42.716;23.312;2023-04-25T08:52:23;5.20;;;3.35;;
22935;SDS011;11633;42.716;23.312;2023-04-25T08:54:49;4.90;;;4.15;;
22935;SDS011;11633;42.716;23.312;2023-04-25T08:57:16;5.45;;;4.45;;
22935;SDS011;11633;42.716;23.312;2023-04-25T08:59:42;8.00;;;6.28;;
22935;SDS011;11633;42.716;23.312;2023-04-25T09:02:10;6.57;;;5.30;;
22935;SDS011;11633;42.716;23.312;2023-04-25T09:04:39;9.63;;;6.43;;
22935;SDS011;11633;42.716;23.312;2023-04-25T09:07:04;11.15;;;6.10;;
22935;SDS011;11633;42.716;23.312;2023-04-25T09:09:30;11.77;;;8.23;;
22935;SDS011;11633;42.716;23.312;2023-04-25T09:11:55;4.63;;;3.13;;
22935;SDS011;11633;42.716;23.312;2023-04-25T09:14:21;6.40;;;5.03;;
22935;SDS011;11633;42.716;23.312;2023-04-25T09:19:24;4.60;;;3.70;;
22935;SDS011;11633;42.716;23.312;2023-04-25T09:21:50;4.95;;;4.28;;
22935;SDS011;11633;42.716;23.312;2023-04-25T09:24:16;4.45;;;3.80;;
22935;SDS011;11633;42.716;23.312;2023-04-25T09:26:41;6.53;;;3.97;;
22935;SDS011;11633;42.716;23.312;2023-04-25T09:29:06;6.43;;;3.50;;
22935;SDS011;11633;42.716;23.312;2023-04-25T09:31:32;5.68;;;3.90;;
22935;SDS011;11633;42.716;23.312;2023-04-25T09:33:59;4.70;;;3.53;;
22935;SDS011;11633;42.716;23.312;2023-04-25T09:36:26;4.70;;;3.40;;
22935;SDS011;11633;42.716;23.312;2023-04-25T09:38:51;3.50;;;2.75;;
22935;SDS011;11633;42.716;23.312;2023-04-25T09:41:21;5.43;;;3.33;;
22935;SDS011;11633;42.716;23.312;2023-04-25T09:43:47;5.75;;;3.22;;
22935;SDS011;11633;42.716;23.312;2023-04-25T09:46:14;2.97;;;2.42;;
22935;SDS011;11633;42.716;23.312;2023-04-25T09:48:40;4.85;;;2.13;;
22935;SDS011;11633;42.716;23.312;2023-04-25T09:51:13;2.72;;;2.42;;
22935;SDS011;11633;42.716;23.312;2023-04-25T09:53:43;2.70;;;2.15;;
22935;SDS011;11633;42.716;23.312;2023-04-25T09:56:09;2.13;;;1.88;;
22935;SDS011;11633;42.716;23.312;2023-04-25T09:58:36;2.88;;;1.80;;
22935;SDS011;11633;42.716;23.312;2023-04-25T10:01:02;2.05;;;1.85;;
22935;SDS011;11633;42.716;23.312;2023-04-25T10:03:30;2.58;;;1.85;;
22935;SDS011;11633;42.716;23.312;2023-04-25T10:05:59;1.83;;;1.73;;
22935;SDS011;11633;42.716;23.312;2023-04-25T10:08:28;2.58;;;1.63;;
22935;SDS011;11633;42.716;23.312;2023-04-25T10:10:55;5.03;;;1.30;;
22935;SDS011;11633;42.716;23.312;2023-04-25T10:13:21;2.35;;;1.00;;
22935;SDS011;11633;42.716;23.312;2023-04-25T10:15:47;1.92;;;1.05;;
22935;SDS011;11633;42.716;23.312;2023-04-25T10:18:13;2.72;;;1.45;;
22935;SDS011;11633;42.716;23.312;2023-04-25T10:20:38;0.57;;;0.57;;
22935;SDS011;11633;42.716;23.312;2023-04-25T10:23:06;0.88;;;0.75;;
22935;SDS011;11633;42.716;23.312;2023-04-25T10:25:33;3.15;;;1.35;;
22935;SDS011;11633;42.716;23.312;2023-04-25T10:27:59;2.20;;;1.55;;
22935;SDS011;11633;42.716;23.312;2023-04-25T10:30:25;4.10;;;1.30;;
22935;SDS011;11633;42.716;23.312;2023-04-25T10:32:51;2.58;;;0.70;;
22935;SDS011;11633;42.716;23.312;2023-04-25T10:35:27;0.50;;;0.30;;
22935;SDS011;11633;42.716;23.312;2023-04-25T10:40:22;2.08;;;0.70;;
22935;SDS011;11633;42.716;23.312;2023-04-25T10:42:47;1.95;;;0.55;;
22935;SDS011;11633;42.716;23.312;2023-04-25T10:45:13;0.80;;;0.77;;
22935;SDS011;11633;42.716;23.312;2023-04-25T10:47:43;1.63;;;0.60;;
22935;SDS011;11633;42.716;23.312;2023-04-25T10:50:09;1.10;;;0.80;;
22935;SDS011;11633;42.716;23.312;2023-04-25T10:52:34;1.42;;;0.60;;
22935;SDS011;11633;42.716;23.312;2023-04-25T10:55:00;3.95;;;1.60;;
22935;SDS011;11633;42.716;23.312;2023-04-25T10:57:28;1.60;;;1.00;;
22935;SDS011;11633;42.716;23.312;2023-04-25T10:59:57;1.30;;;0.95;;
22935;SDS011;11633;42.716;23.312;2023-04-25T11:02:23;1.77;;;0.75;;
22935;SDS011;11633;42.716;23.312;2023-04-25T11:04:51;1.30;;;0.90;;
22935;SDS011;11633;42.716;23.312;2023-04-25T11:07:37;0.68;;;0.57;;
22935;SDS011;11633;42.716;23.312;2023-04-25T11:10:03;0.73;;;0.68;;
22935;SDS011;11633;42.716;23.312;2023-04-25T11:12:29;2.05;;;0.95;;
22935;SDS011;11633;42.716;23.312;2023-04-25T11:14:59;3.53;;;3.25;;
22935;SDS011;11633;42.716;23.312;2023-04-25T11:17:26;0.85;;;0.52;;
22935;SDS011;11633;42.716;23.312;2023-04-25T11:19:51;0.93;;;0.60;;
22935;SDS011;11633;42.716;23.312;2023-04-25T11:22:16;2.85;;;0.63;;
22935;SDS011;11633;42.716;23.312;2023-04-25T11:24:41;1.13;;;0.57;;
22935;SDS011;11633;42.716;23.312;2023-04-25T11:27:07;0.88;;;0.40;;
22935;SDS011;11633;42.716;23.312;2023-04-25T11:29:34;1.27;;;0.70;;
22935;SDS011;11633;42.716;23.312;2023-04-25T11:31:59;0.65;;;0.50;;
22935;SDS011;11633;42.716;23.312;2023-04-25T11:34:26;1.08;;;0.50;;
22935;SDS011;11633;42.716;23.312;2023-04-25T11:36:51;0.80;;;0.60;;
22935;SDS011;11633;42.716;23.312;2023-04-25T11:39:20;0.88;;;0.65;;
22935;SDS011;11633;42.716;23.312;2023-04-25T11:41:46;1.00;;;0.50;;
22935;SDS011;11633;42.716;23.312;2023-04-25T11:44:11;1.00;;;0.65;;
22935;SDS011;11633;42.716;23.312;2023-04-25T11:46:37;1.10;;;0.50;;
22935;SDS011;11633;42.716;23.312;2023-04-25T11:49:02;0.98;;;0.80;;
22935;SDS011;11633;42.716;23.312;2023-04-25T11:51:29;1.10;;;0.77;;
22935;SDS011;11633;42.716;23.312;2023-04-25T11:53:55;1.35;;;0.93;;
22935;SDS011;11633;42.716;23.312;2023-04-25T11:56:20;0.90;;;0.52;;
22935;SDS011;11633;42.716;23.312;2023-04-25T11:58:58;1.67;;;1.08;;
22935;SDS011;11633;42.716;23.312;2023-04-25T12:03:51;5.30;;;0.93;;
22935;SDS011;11633;42.716;23.312;2023-04-25T12:06:17;7.55;;;4.85;;
22935;SDS011;11633;42.716;23.312;2023-04-25T12:08:58;1.02;;;0.90;;
22935;SDS011;11633;42.716;23.312;2023-04-25T12:11:23;2.47;;;0.65;;
22935;SDS011;11633;42.716;23.312;2023-04-25T12:13:51;0.40;;;0.30;;
22935;SDS011;11633;42.716;23.312;2023-04-25T12:16:17;1.00;;;0.50;;
22935;SDS011;11633;42.716;23.312;2023-04-25T12:18:42;1.80;;;0.82;;
22935;SDS011;11633;42.716;23.312;2023-04-25T12:21:07;1.25;;;0.50;;
22935;SDS011;11633;42.716;23.312;2023-04-25T12:23:34;1.88;;;0.40;;
22935;SDS011;11633;42.716;23.312;2023-04-25T12:26:03;1.15;;;0.57;;
22935;SDS011;11633;42.716;23.312;2023-04-25T12:28:28;1.42;;;0.82;;
22935;SDS011;11633;42.716;23.312;2023-04-25T12:33:22;1.45;;;0.60;;
22935;SDS011;11633;42.716;23.312;2023-04-25T12:35:48;3.22;;;0.95;;
22935;SDS011;11633;42.716;23.312;2023-04-25T12:38:29;2.88;;;0.85;;
22935;SDS011;11633;42.716;23.312;2023-04-25T12:40:59;0.93;;;0.80;;
22935;SDS011;11633;42.716;23.312;2023-04-25T12:43:25;0.70;;;0.43;;
22935;SDS011;11633;42.716;23.312;2023-04-25T12:45:54;0.82;;;0.70;;
22935;SDS011;11633;42.716;23.312;2023-04-25T12:48:19;2.63;;;0.65;;
22935;SDS011;11633;42.716;23.312;2023-04-25T12:50:45;4.85;;;1.52;;
22935;SDS011;11633;42.716;23.312;2023-04-25T12:53:13;2.30;;;0.93;;
22935;SDS011;11633;42.716;23.312;2023-04-25T12:55:39;1.77;;;1.00;;
22935;SDS011;11633;42.716;23.312;2023-04-25T12:58:05;2.50;;;1.30;;
22935;SDS011;11633;42.716;23.312;2023-04-25T13:00:30;1.40;;;1.08;;
22935;SDS011;11633;42.716;23.312;2023-04-25T13:02:56;3.95;;;1.08;;
22935;SDS011;11633;42.716;23.312;2023-04-25T13:05:21;0.80;;;0.73;;
22935;SDS011;11633;42.716;23.312;2023-04-25T13:07:47;3.03;;;1.50;;
22935;SDS011;11633;42.716;23.312;2023-04-25T13:10:12;2.95;;;1.58;;
22935;SDS011;11633;42.716;23.312;2023-04-25T13:12:37;1.33;;;1.20;;
22935;SDS011;11633;42.716;23.312;2023-04-25T13:15:03;1.30;;;1.20;;
22935;SDS011;11633;42.716;23.312;2023-04-25T13:17:28;2.83;;;1.75;;
22935;SDS011;11633;42.716;23.312;2023-04-25T13:19:53;3.10;;;1.35;;
22935;SDS011;11633;42.716;23.312;2023-04-25T13:22:18;1.88;;;1.35;;
22935;SDS011;11633;42.716;23.312;2023-04-25T13:24:45;1.60;;;1.20;;
22935;SDS011;11633;42.716;23.312;2023-04-25T13:27:10;2.20;;;1.27;;
22935;SDS011;11633;42.716;23.312;2023-04-25T13:29:35;3.28;;;1.90;;
22935;SDS011;11633;42.716;23.312;2023-04-25T13:32:03;3.75;;;2.40;;
22935;SDS011;11633;42.716;23.312;2023-04-25T13:34:28;5.22;;;2.95;;
22935;SDS011;11633;42.716;23.312;2023-04-25T13:36:54;5.45;;;3.28;;
22935;SDS011;11633;42.716;23.312;2023-04-25T13:39:19;2.92;;;2.22;;
22935;SDS011;11633;42.716;23.312;2023-04-25T13:41:44;3.53;;;1.98;;
22935;SDS011;11633;42.716;23.312;2023-04-25T13:44:10;3.85;;;2.15;;
22935;SDS011;11633;42.716;23.312;2023-04-25T13:46:35;7.28;;;3.97;;
22935;SDS011;11633;42.716;23.312;2023-04-25T13:49:02;4.95;;;2.92;;
22935;SDS011;11633;42.716;23.312;2023-04-25T13:51:27;5.03;;;2.70;;
22935;SDS011;11633;42.716;23.312;2023-04-25T13:53:52;3.25;;;2.42;;
22935;SDS011;11633;42.716;23.312;2023-04-25T13:56:18;5.13;;;2.75;;
22935;SDS011;11633;42.716;23.312;2023-04-25T13:58:44;5.22;;;2.70;;
22935;SDS011;11633;42.716;23.312;2023-04-25T14:01:10;5.30;;;3.42;;
22935;SDS011;11633;42.716;23.312;2023-04-25T14:03:35;7.68;;;3.17;;
22935;SDS011;11633;42.716;23.312;2023-04-25T14:06:00;3.15;;;2.30;;
22935;SDS011;11633;42.716;23.312;2023-04-25T14:08:26;2.92;;;2.40;;
22935;SDS011;11633;42.716;23.312;2023-04-25T14:10:51;2.75;;;1.70;;
22935;SDS011;11633;42.716;23.312;2023-04-25T14:13:16;3.20;;;1.38;;
22935;SDS011;11633;42.716;23.312;2023-04-25T14:15:42;1.63;;;1.42;;
22935;SDS011;11633;42.716;23.312;2023-04-25T14:18:07;2.75;;;1.60;;
22935;SDS011;11633;42.716;23.312;2023-04-25T14:20:33;6.68;;;1.98;;
22935;SDS011;11633;42.716;23.312;2023-04-25T14:22:59;1.48;;;1.02;;
22935;SDS011;11633;42.716;23.312;2023-04-25T14:25:25;3.10;;;1.40;;
22935;SDS011;11633;42.716;23.312;2023-04-25T14:27:50;1.88;;;1.23;;
22935;SDS011;11633;42.716;23.312;2023-04-25T14:30:16;2.00;;;1.25;;
22935;SDS011;11633;42.716;23.312;2023-04-25T14:32:42;1.00;;;0.90;;
22935;SDS011;11633;42.716;23.312;2023-04-25T14:35:07;1.50;;;1.10;;